Campanya Meteocatpedra
Centenari de l'SMC: 100 anys mirant el cel

Dades de l'estació automàtica Alfarràs

?
?

Resum diari

22:00 TU
Dades diàries de l'estació meteorològica
Temperatura mitjana 17.5 °C
Temperatura màxima 25.9 °C 14:03 TU
Temperatura mínima 9.4 °C 4:50 TU
Humitat relativa mitjana 62%
Precipitació acumulada 0.0 mm
Ratxa màxima del vent (2 m) 22.7 km/h - 284º 14:55 TU

El tram horari està expressat en Temps Universal (TU). Cal sumar una hora en horari d'hivern i dues en horari d'estiu per passar a l'hora oficial.

Alfarràs

Metadades estació meteorològica
Municipi Alfarràs
Comarca Segrià
Altitud 268 m
Data alta 17.09.1997
Estat actual Operativa
Dades de període
Període
TU
TM
°C
TX
°C
TN
°C
HRM
%
PPT
mm
VVM (2 m)
km/h
DVM (2 m)
graus
VVX (2 m)
km/h
00:00 - 00:30 12.2 12.9 11.9 88 0.0 1.1 11 5.4
00:30 - 01:00 12.1 12.3 11.9 88 0.0 2.5 335 6.1
01:00 - 01:30 11.6 12.0 11.0 90 0.0 0.7 354 2.9
01:30 - 02:00 10.8 11.3 10.4 95 0.0 0.7 8 3.2
02:00 - 02:30 11.4 11.7 11.2 91 0.0 1.4 347 4.7
02:30 - 03:00 11.8 11.9 11.6 90 0.0 1.4 351 4.7
03:00 - 03:30 11.7 11.9 11.5 90 0.0 1.1 358 3.6
03:30 - 04:00 11.1 11.4 10.9 94 0.0 0.4 343 2.5
04:00 - 04:30 10.7 10.9 10.5 95 0.0 0.7 348 2.9
04:30 - 05:00 9.9 10.5 9.4 96 0.0 0.7 39 3.2
05:00 - 05:30 10.0 10.2 9.8 98 0.0 1.4 343 4.3
05:30 - 06:00 10.0 10.2 9.7 97 0.0 2.5 357 8.6
06:00 - 06:30 10.2 10.8 10.0 95 0.0 2.2 325 5.4
06:30 - 07:00 11.7 12.7 10.9 89 0.0 1.8 353 6.1
07:00 - 07:30 14.3 16.6 12.8 79 0.0 1.8 46 5.0
07:30 - 08:00 16.4 17.0 15.9 69 0.0 2.9 136 6.5
08:00 - 08:30 17.4 18.3 16.4 65 0.0 2.5 259 9.4
08:30 - 09:00 18.2 18.5 17.9 62 0.0 5.0 277 13.3
09:00 - 09:30 19.1 19.4 18.1 59 0.0 4.0 259 11.9
09:30 - 10:00 19.6 20.4 19.0 58 0.0 4.3 264 10.8
10:00 - 10:30 20.7 21.2 20.1 55 0.0 4.0 224 10.1
10:30 - 11:00 21.5 22.6 20.3 53 0.0 3.2 200 13.7
11:00 - 11:30 22.3 22.7 21.7 50 0.0 5.8 276 14.0
11:30 - 12:00 23.2 23.6 22.6 44 0.0 5.0 279 16.6
12:00 - 12:30 24.2 25.1 23.0 42 0.0 4.0 254 13.0
12:30 - 13:00 25.0 25.5 24.5 39 0.0 3.2 230 14.4
13:00 - 13:30 25.1 25.7 24.4 36 0.0 4.7 277 15.8
13:30 - 14:00 25.6 25.8 25.3 30 0.0 6.8 231 21.2
14:00 - 14:30 25.5 25.9 25.0 28 0.0 5.8 257 16.2
14:30 - 15:00 25.1 25.6 24.8 25 0.0 7.6 261 22.7
15:00 - 15:30 24.9 25.2 24.6 26 0.0 7.6 261 20.9
15:30 - 16:00 24.7 25.3 24.1 28 0.0 7.9 261 18.7
16:00 - 16:30 23.3 24.1 22.6 31 0.0 8.3 265 19.4
16:30 - 17:00 22.4 22.7 21.8 35 0.0 6.5 260 18.0
17:00 - 17:30 21.1 21.8 20.4 38 0.0 5.0 261 15.8
17:30 - 18:00 20.1 20.4 19.6 41 0.0 3.6 252 11.9
18:00 - 18:30 19.3 19.6 18.9 42 0.0 3.2 254 9.7
18:30 - 19:00 18.8 18.9 18.7 44 0.0 2.9 232 11.5
19:00 - 19:30 18.4 18.7 17.8 45 0.0 2.2 284 8.3
19:30 - 20:00 16.9 17.9 16.0 53 0.0 0.4 50 2.5
20:00 - 20:30 15.5 15.9 15.1 63 0.0 0.7 174 4.0
20:30 - 21:00 15.9 16.5 15.1 59 0.0 3.2 170 7.9
21:00 - 21:30 16.0 16.3 15.4 58 0.0 2.5 196 6.5
21:30 - 22:00 15.5 16.0 14.7 59 0.0 2.5 178 5.8
22:00 - 22:30 14.2 14.7 13.0 64 0.0 2.2 312 4.3

Les dades en taronja només han passat un control de qualitat automàtic. Resta pendent la seva validació definitiva.